createdAt,value
2023-05-03T01:25:23.429Z,2.40
2023-05-03T01:26:30.076Z,3.22
2023-05-03T01:27:31.700Z,2.67
2023-05-03T01:28:33.709Z,2.40
2023-05-03T01:29:35.972Z,2.65
2023-05-03T01:30:40.097Z,2.60
2023-05-03T01:31:48.812Z,2.35
2023-05-03T01:39:13.518Z,2.53
2023-05-03T02:31:12.056Z,4.13
2023-05-03T02:32:15.888Z,3.63
2023-05-03T02:33:18.608Z,4.30
2023-05-03T02:34:24.878Z,4.10
2023-05-03T02:35:27.214Z,3.85
2023-05-03T02:36:32.551Z,3.80
2023-05-03T02:37:37.295Z,3.70
2023-05-03T02:38:42.442Z,3.58
2023-05-03T02:39:43.994Z,3.80
2023-05-03T02:40:46.825Z,4.00
2023-05-03T02:41:48.687Z,3.72
2023-05-03T02:42:52.377Z,3.78
2023-05-03T02:43:56.989Z,3.97
2023-05-03T02:44:59.919Z,4.15
2023-05-03T02:46:04.262Z,4.18
2023-05-03T02:47:08.122Z,4.45
2023-05-03T02:48:12.302Z,3.95
2023-05-03T02:49:15.507Z,3.80
2023-05-03T02:50:19.532Z,4.00
2023-05-03T02:51:24.610Z,3.67
2023-05-03T02:52:28.112Z,4.25
2023-05-03T02:53:29.830Z,4.88
2023-05-03T02:54:31.745Z,4.10
2023-05-03T02:55:37.313Z,4.30
2023-05-03T02:56:39.728Z,4.20
2023-05-03T02:57:45.057Z,4.65
2023-05-03T02:58:46.711Z,3.90
2023-05-03T02:59:48.297Z,4.50
2023-05-03T03:00:51.656Z,3.85
2023-05-03T03:01:55.983Z,4.85
2023-05-03T03:02:57.841Z,4.13
2023-05-03T03:04:00.026Z,4.18
2023-05-03T03:05:01.753Z,4.03
2023-05-03T03:06:09.602Z,4.43
2023-05-03T03:07:12.898Z,3.88
2023-05-03T03:08:17.984Z,4.47
2023-05-03T03:09:20.783Z,4.15
2023-05-03T03:11:30.029Z,4.28
2023-05-03T03:12:34.273Z,4.30
2023-05-03T03:13:42.825Z,4.28
2023-05-03T03:14:49.917Z,4.07
2023-05-03T03:15:54.461Z,4.68
2023-05-03T03:16:59.357Z,4.57
2023-05-03T03:18:04.905Z,4.50
2023-05-03T03:19:07.840Z,4.18
2023-05-03T03:20:29.261Z,4.43
2023-05-03T03:21:35.896Z,3.67
2023-05-03T03:22:38.281Z,4.30
2023-05-03T03:23:42.595Z,5.13
2023-05-03T03:24:45.233Z,4.72
2023-05-03T03:25:47.732Z,4.72
2023-05-03T03:26:49.752Z,4.45
2023-05-03T03:27:51.327Z,4.60
2023-05-03T03:28:53.718Z,5.15
2023-05-03T03:29:59.103Z,4.60
2023-05-03T03:31:04.483Z,4.97
2023-05-03T03:32:08.131Z,4.45
2023-05-03T03:33:09.768Z,4.75
2023-05-03T03:34:16.738Z,4.72
2023-05-03T03:35:18.509Z,4.57
2023-05-03T03:36:20.130Z,4.53
2023-05-03T03:37:24.258Z,4.50
2023-05-03T03:38:26.992Z,4.30
2023-05-03T03:39:28.753Z,4.57
2023-05-03T03:40:32.522Z,4.90
2023-05-03T03:41:36.258Z,4.70
2023-05-03T03:42:42.075Z,5.30
2023-05-03T03:43:46.361Z,4.55
2023-05-03T03:44:51.281Z,5.35
2023-05-03T03:45:55.479Z,4.60
2023-05-03T03:46:57.802Z,4.80
2023-05-03T03:47:59.838Z,4.57
2023-05-03T03:49:05.571Z,4.15
2023-05-03T03:50:07.264Z,4.68
2023-05-03T03:51:11.196Z,4.18
2023-05-03T03:52:12.846Z,4.40
2023-05-03T03:53:16.261Z,4.68
2023-05-03T03:54:18.722Z,4.60
2023-05-03T03:55:23.931Z,4.72
2023-05-03T03:56:25.549Z,4.68
2023-05-03T03:57:30.338Z,4.60
2023-05-03T03:58:35.055Z,4.20
2023-05-03T03:59:39.164Z,4.95
2023-05-03T04:00:43.430Z,5.40
2023-05-03T04:01:49.203Z,4.55
2023-05-03T04:02:54.098Z,4.80
2023-05-03T04:03:57.209Z,4.40
2023-05-03T04:04:59.796Z,5.07
2023-05-03T04:06:04.364Z,4.53
2023-05-03T04:07:09.076Z,4.80
2023-05-03T04:08:10.838Z,4.97
2023-05-03T04:09:12.590Z,4.32
2023-05-03T04:10:19.264Z,4.28
2023-05-03T04:11:24.523Z,4.78
2023-05-03T04:12:27.088Z,4.82
2023-05-03T04:13:31.242Z,4.25
2023-05-03T04:14:36.628Z,4.93
2023-05-03T04:15:40.407Z,4.57
2023-05-03T04:16:42.809Z,4.75
2023-05-03T04:17:48.990Z,4.80
2023-05-03T04:18:53.072Z,4.60
2023-05-03T04:19:54.806Z,4.88
2023-05-03T04:20:58.241Z,4.60
2023-05-03T04:22:05.344Z,5.10
2023-05-03T04:23:09.341Z,4.78
2023-05-03T04:24:17.391Z,4.82
2023-05-03T04:25:22.543Z,4.68
2023-05-03T04:26:31.848Z,5.28
2023-05-03T04:27:37.809Z,4.75
2023-05-03T04:28:39.819Z,5.10
2023-05-03T04:29:45.965Z,4.93
2023-05-03T04:30:50.734Z,5.32
2023-05-03T04:31:55.702Z,4.97
2023-05-03T04:33:01.412Z,4.47
2023-05-03T04:34:06.571Z,5.22
2023-05-03T04:35:12.987Z,4.90
2023-05-03T04:36:20.499Z,4.10
2023-05-03T04:37:26.398Z,5.00
2023-05-03T04:38:31.752Z,4.50
2023-05-03T04:39:34.536Z,4.70
2023-05-03T04:40:40.345Z,5.25
2023-05-03T04:41:45.307Z,4.60
2023-05-03T04:42:47.769Z,4.93
2023-05-03T04:43:52.409Z,4.70
2023-05-03T04:44:55.061Z,4.82
2023-05-03T04:45:57.565Z,4.90
2023-05-03T04:47:02.948Z,4.57
2023-05-03T04:48:09.348Z,4.28
2023-05-03T04:49:15.072Z,4.63
2023-05-03T04:50:20.053Z,4.75
2023-05-03T04:51:24.064Z,4.47
2023-05-03T04:52:29.461Z,5.20
2023-05-03T04:53:31.401Z,4.82
2023-05-03T04:54:36.558Z,4.90
2023-05-03T04:55:39.284Z,4.68
2023-05-03T04:56:41.753Z,4.65
2023-05-03T04:57:44.525Z,4.68
2023-05-03T04:58:46.918Z,4.28
2023-05-03T04:59:53.425Z,5.20
2023-05-03T05:00:56.071Z,5.15
2023-05-03T05:01:59.053Z,5.10
2023-05-03T05:03:04.912Z,4.95
2023-05-03T05:04:09.953Z,5.80
2023-05-03T05:05:16.970Z,5.45
2023-05-03T05:06:21.172Z,4.43
2023-05-03T05:07:27.410Z,5.55
2023-05-03T05:08:33.571Z,4.57
2023-05-03T05:09:39.900Z,5.20
2023-05-03T05:10:41.827Z,5.70
2023-05-03T05:11:48.614Z,4.97
2023-05-03T05:12:53.792Z,5.60
2023-05-03T05:13:59.571Z,5.70
2023-05-03T05:15:06.780Z,5.75
2023-05-03T05:16:14.578Z,5.53
2023-05-03T05:17:18.374Z,5.85
2023-05-03T05:18:23.368Z,6.05
2023-05-03T05:19:26.318Z,5.43
2023-05-03T05:20:30.177Z,6.00
2023-05-03T05:21:31.872Z,5.88
2023-05-03T05:22:36.781Z,5.75
2023-05-03T05:23:38.366Z,5.18
2023-05-03T05:24:43.314Z,6.03
2023-05-03T05:25:47.018Z,5.85
2023-05-03T05:26:50.473Z,5.68
2023-05-03T05:27:52.092Z,6.03
2023-05-03T05:28:53.940Z,4.93
2023-05-03T05:29:55.591Z,5.57
2023-05-03T05:31:00.310Z,5.72
2023-05-03T05:32:05.721Z,5.50
2023-05-03T05:33:10.361Z,5.82
2023-05-03T05:34:15.113Z,5.80
2023-05-03T05:35:22.081Z,6.72
2023-05-03T05:36:24.702Z,5.80
2023-05-03T05:37:27.611Z,5.20
2023-05-03T05:38:29.471Z,5.40
2023-05-03T05:39:31.777Z,5.82
2023-05-03T05:40:38.329Z,6.10
2023-05-03T05:41:43.473Z,5.60
2023-05-03T05:42:46.736Z,5.10
2023-05-03T05:43:50.924Z,5.40
2023-05-03T05:44:52.891Z,5.13
2023-05-03T05:45:57.330Z,5.53
2023-05-03T05:47:03.880Z,5.35
2023-05-03T05:48:11.102Z,6.70
2023-05-03T05:49:15.565Z,5.57
2023-05-03T05:50:18.620Z,5.55
2023-05-03T05:51:23.900Z,4.70
2023-05-03T05:52:29.082Z,5.18
2023-05-03T05:53:31.834Z,5.78
2023-05-03T05:54:37.064Z,5.60
2023-05-03T05:55:38.857Z,5.63
2023-05-03T05:56:42.430Z,5.38
2023-05-03T05:57:47.081Z,5.68
2023-05-03T05:58:48.640Z,4.75
2023-05-03T05:59:54.955Z,4.85
2023-05-03T06:01:06.935Z,5.32
2023-05-03T06:02:25.825Z,4.63
2023-05-03T06:03:28.903Z,5.13
2023-05-03T06:04:33.233Z,4.80
2023-05-03T06:05:34.813Z,5.28
2023-05-03T06:06:39.454Z,5.53
2023-05-03T06:07:44.584Z,4.63
2023-05-03T06:08:52.620Z,5.82
2023-05-03T06:09:57.309Z,5.55
2023-05-03T06:10:59.802Z,5.07
2023-05-03T06:12:02.220Z,5.47
2023-05-03T06:13:06.535Z,5.00
2023-05-03T06:15:45.579Z,4.15
2023-05-03T06:16:48.880Z,4.20
2023-05-03T06:17:54.087Z,4.22
2023-05-03T06:18:56.344Z,3.88
2023-05-03T06:20:01.456Z,4.38
2023-05-03T06:21:07.635Z,3.95
2023-05-03T06:22:14.350Z,4.25
2023-05-03T06:23:20.237Z,4.00
2023-05-03T06:24:24.036Z,3.85
2023-05-03T06:25:32.971Z,4.50
2023-05-03T06:26:40.077Z,4.00
2023-05-03T06:27:51.197Z,4.33
2023-05-03T06:30:14.432Z,3.70
2023-05-03T06:31:19.040Z,4.18
2023-05-03T06:32:25.084Z,4.15
2023-05-03T06:33:31.838Z,3.10
2023-05-03T06:34:42.313Z,3.30
2023-05-03T06:35:46.632Z,3.10
2023-05-03T06:36:55.190Z,3.80
2023-05-03T06:37:58.152Z,4.13
2023-05-03T06:39:06.190Z,3.42
2023-05-03T06:40:14.910Z,2.95
2023-05-03T06:41:22.455Z,3.92
2023-05-03T06:42:43.536Z,3.60
2023-05-03T06:43:47.290Z,3.75
2023-05-03T06:44:50.130Z,3.58
2023-05-03T06:45:55.016Z,3.65
2023-05-03T06:46:58.992Z,4.20
2023-05-03T06:48:04.385Z,4.03
2023-05-03T06:49:18.054Z,3.20
2023-05-03T06:50:37.532Z,3.97
2023-05-03T06:51:40.350Z,2.85
2023-05-03T06:54:08.411Z,2.83
2023-05-03T06:55:15.868Z,2.83
2023-05-03T06:56:25.052Z,3.22
2023-05-03T06:57:31.928Z,2.95
2023-05-03T06:58:36.938Z,2.90
2023-05-03T06:59:41.909Z,2.78
2023-05-03T07:00:47.967Z,2.75
2023-05-03T07:01:55.044Z,2.40
2023-05-03T07:03:00.721Z,2.63
2023-05-03T07:04:05.500Z,2.83
2023-05-03T07:05:09.106Z,4.47
2023-05-03T07:06:17.684Z,5.07
2023-05-03T07:07:23.912Z,4.90
2023-05-03T07:08:33.851Z,4.25
2023-05-03T07:09:43.150Z,3.03
2023-05-03T07:10:51.871Z,3.13
2023-05-03T07:11:53.745Z,3.15
2023-05-03T07:13:00.677Z,3.10
2023-05-03T07:14:03.133Z,4.18
2023-05-03T07:15:06.911Z,2.95
2023-05-03T07:16:11.051Z,2.65
2023-05-03T07:17:14.307Z,2.72
2023-05-03T07:18:19.153Z,2.85
2023-05-03T07:19:24.448Z,2.85
2023-05-03T07:20:31.825Z,3.13
2023-05-03T07:21:35.957Z,2.55
2023-05-03T07:22:43.234Z,2.28
2023-05-03T07:23:47.344Z,2.55
2023-05-03T07:24:51.184Z,2.65
2023-05-03T07:25:57.343Z,2.90
2023-05-03T07:26:59.984Z,2.30
2023-05-03T07:28:07.385Z,2.45
2023-05-03T07:29:10.202Z,2.08
2023-05-03T07:30:14.587Z,2.20
2023-05-03T07:31:19.624Z,2.50
2023-05-03T07:32:28.577Z,2.70
2023-05-03T07:33:33.324Z,1.88
2023-05-03T07:34:49.781Z,2.42
2023-05-03T07:35:53.547Z,1.98
2023-05-03T07:37:03.999Z,1.48
2023-05-03T07:38:08.741Z,1.73
2023-05-03T07:39:18.309Z,1.67
2023-05-03T07:40:21.747Z,1.70
2023-05-03T07:41:29.588Z,1.80
2023-05-03T07:42:36.582Z,1.90
2023-05-03T07:43:48.880Z,1.42
2023-05-03T07:45:03.477Z,1.40
2023-05-03T07:46:09.813Z,1.67
2023-05-03T07:47:15.265Z,1.70
2023-05-03T07:48:17.679Z,1.88
2023-05-03T07:49:29.120Z,1.77
2023-05-03T07:50:35.636Z,2.05
2023-05-03T07:51:40.026Z,2.33
2023-05-03T07:52:46.048Z,1.80
2023-05-03T07:53:54.277Z,1.60
2023-05-03T07:55:00.036Z,2.47
2023-05-03T07:57:26.440Z,1.70
2023-05-03T07:58:40.162Z,2.10
2023-05-03T08:00:04.034Z,1.88
2023-05-03T08:01:13.685Z,1.95
2023-05-03T08:02:18.197Z,1.55
2023-05-03T08:03:25.164Z,2.30
2023-05-03T08:04:32.619Z,2.65
2023-05-03T08:05:40.951Z,2.33
2023-05-03T08:06:43.967Z,2.50
2023-05-03T08:07:47.102Z,2.10
2023-05-03T08:08:53.939Z,2.22
2023-05-03T08:10:02.769Z,2.10
2023-05-03T08:11:08.779Z,2.42
2023-05-03T08:12:17.170Z,2.03
2023-05-03T08:13:23.117Z,2.42
2023-05-03T08:14:28.001Z,2.30
2023-05-03T08:15:34.410Z,2.80
2023-05-03T08:16:39.228Z,2.17
2023-05-03T08:17:47.054Z,2.50
2023-05-03T08:18:48.825Z,2.47
2023-05-03T08:19:55.262Z,2.28
2023-05-03T08:20:58.800Z,2.53
2023-05-03T08:22:09.601Z,2.45
2023-05-03T08:23:20.281Z,2.40
2023-05-03T08:24:23.520Z,2.50
2023-05-03T08:25:26.341Z,2.00
2023-05-03T08:26:35.839Z,2.50
2023-05-03T08:27:39.583Z,2.28
2023-05-03T08:28:45.029Z,3.33
2023-05-03T08:29:49.963Z,2.80
2023-05-03T08:30:54.444Z,2.30
2023-05-03T08:32:04.059Z,2.33
2023-05-03T08:33:14.783Z,2.75
2023-05-03T08:34:19.424Z,2.40
2023-05-03T08:35:30.759Z,2.38
2023-05-03T08:36:36.860Z,2.80
2023-05-03T08:37:43.995Z,2.85
2023-05-03T08:38:48.982Z,2.38
2023-05-03T08:39:55.506Z,2.20
2023-05-03T08:41:02.327Z,2.80
2023-05-03T08:42:16.793Z,2.35
2023-05-03T08:43:25.758Z,2.47
2023-05-03T08:44:36.628Z,2.38
2023-05-03T08:45:54.364Z,2.42
2023-05-03T08:47:02.391Z,2.20
2023-05-03T08:48:12.869Z,2.38
2023-05-03T08:49:20.003Z,2.17
2023-05-03T08:50:33.599Z,2.28
2023-05-03T08:51:46.124Z,2.17
2023-05-03T08:52:50.479Z,2.00
2023-05-03T08:53:54.126Z,3.38
2023-05-03T08:54:56.294Z,2.00
2023-05-03T08:56:02.089Z,2.30
2023-05-03T08:57:16.339Z,2.10
2023-05-03T08:58:26.515Z,2.30
2023-05-03T08:59:39.153Z,2.60
2023-05-03T09:00:49.474Z,2.50
2023-05-03T09:01:56.472Z,2.60
2023-05-03T09:03:02.089Z,2.33
2023-05-03T09:04:07.493Z,2.72
2023-05-03T09:05:22.799Z,2.78
2023-05-03T09:06:33.703Z,2.72
2023-05-03T09:07:39.776Z,2.30
2023-05-03T09:08:48.252Z,2.20
2023-05-03T09:09:57.957Z,2.80
2023-05-03T09:11:01.871Z,2.20
2023-05-03T09:12:07.589Z,2.35
2023-05-03T09:13:13.723Z,2.90
2023-05-03T09:14:23.329Z,2.50
2023-05-03T09:15:30.299Z,2.10
2023-05-03T09:16:35.929Z,2.25
2023-05-03T09:17:42.483Z,2.50
2023-05-03T09:18:58.313Z,2.78
2023-05-03T09:20:02.600Z,2.20
2023-05-03T09:21:10.732Z,2.70
2023-05-03T09:22:13.214Z,2.55
2023-05-03T09:23:15.064Z,2.55
2023-05-03T09:24:22.569Z,2.53
2023-05-03T09:25:41.272Z,2.17
2023-05-03T09:26:50.279Z,2.30
2023-05-03T09:28:05.842Z,2.28
2023-05-03T09:29:09.842Z,2.42
2023-05-03T09:30:25.868Z,2.23
2023-05-03T09:31:36.416Z,2.40
2023-05-03T09:32:48.853Z,2.58
2023-05-03T09:33:59.790Z,2.47
2023-05-03T09:35:11.497Z,2.40
2023-05-03T09:36:23.136Z,2.75
2023-05-03T09:37:41.016Z,2.13
2023-05-03T09:38:44.037Z,2.10
2023-05-03T09:39:46.220Z,2.00
2023-05-03T09:40:51.408Z,2.00
2023-05-03T09:41:56.738Z,2.58
2023-05-03T09:43:12.016Z,8.65
2023-05-03T09:44:20.295Z,2.03
2023-05-03T09:45:29.227Z,2.00
2023-05-03T09:46:36.332Z,7.35
2023-05-03T09:47:55.543Z,2.42
2023-05-03T09:49:01.895Z,2.03
2023-05-03T09:50:08.038Z,1.90
2023-05-03T09:51:14.755Z,2.20
2023-05-03T09:52:21.389Z,2.35
2023-05-03T09:53:27.612Z,5.63
2023-05-03T09:54:41.100Z,4.65
2023-05-03T09:55:42.741Z,2.05
2023-05-03T09:56:50.613Z,1.95
2023-05-03T09:57:58.185Z,2.35
2023-05-03T09:59:05.011Z,2.45
2023-05-03T10:00:17.554Z,2.30
2023-05-03T10:01:24.478Z,2.50
2023-05-03T10:02:34.212Z,2.40
2023-05-03T10:03:53.891Z,2.47
2023-05-03T10:05:04.696Z,2.10
2023-05-03T10:06:13.352Z,2.22
2023-05-03T10:07:19.435Z,2.85
2023-05-03T10:08:37.513Z,1.98
2023-05-03T10:09:46.181Z,1.90
2023-05-03T10:10:53.033Z,2.05
2023-05-03T10:12:01.708Z,2.33
2023-05-03T10:13:11.993Z,2.72
2023-05-03T10:14:20.817Z,1.90
2023-05-03T10:15:31.726Z,1.83
2023-05-03T10:16:41.785Z,1.80
2023-05-03T10:17:48.318Z,1.83
2023-05-03T10:19:01.779Z,1.73
2023-05-03T10:20:16.052Z,2.05
2023-05-03T10:21:43.092Z,2.00
2023-05-03T10:23:08.037Z,1.95
2023-05-03T10:24:18.908Z,1.55
2023-05-03T10:25:24.888Z,1.90
2023-05-03T10:26:29.958Z,1.50
2023-05-03T10:27:49.953Z,1.75
2023-05-03T10:28:55.321Z,1.83
2023-05-03T10:29:59.425Z,1.80
2023-05-03T10:31:05.173Z,2.00
2023-05-03T10:32:33.380Z,2.00
2023-05-03T10:33:38.768Z,2.13
2023-05-03T10:34:47.402Z,2.00
2023-05-03T10:35:59.085Z,2.03
2023-05-03T10:37:08.798Z,1.83
2023-05-03T10:38:19.404Z,1.88
2023-05-03T10:39:24.849Z,2.15
2023-05-03T10:40:45.664Z,1.90
2023-05-03T10:42:04.502Z,1.83
2023-05-03T10:43:08.678Z,1.98
2023-05-03T10:44:40.186Z,1.70
2023-05-03T10:45:55.986Z,1.80
2023-05-03T10:47:00.064Z,1.75
2023-05-03T10:48:21.219Z,1.85
2023-05-03T10:49:29.774Z,2.35
2023-05-03T10:50:36.129Z,1.87
2023-05-03T10:51:43.601Z,2.00
2023-05-03T10:52:45.757Z,1.90
2023-05-03T10:53:47.357Z,1.92
2023-05-03T10:55:02.971Z,1.98
2023-05-03T10:56:08.497Z,2.03
2023-05-03T10:57:12.303Z,1.90
2023-05-03T10:58:17.224Z,1.95
2023-05-03T10:59:20.193Z,1.73
2023-05-03T11:00:39.242Z,1.75
2023-05-03T11:01:50.668Z,1.80
2023-05-03T11:03:13.293Z,1.90
2023-05-03T11:04:33.935Z,2.45
2023-05-03T11:05:38.524Z,2.08
2023-05-03T11:06:48.462Z,1.90
2023-05-03T11:07:57.195Z,1.70
2023-05-03T11:09:05.012Z,6.63
2023-05-03T11:10:25.263Z,2.58
2023-05-03T11:11:29.204Z,2.17
2023-05-03T11:12:34.891Z,2.00
2023-05-03T11:13:37.686Z,1.83
2023-05-03T11:14:45.584Z,1.80
2023-05-03T11:15:50.312Z,1.83
2023-05-03T11:16:52.193Z,1.90
2023-05-03T11:17:54.027Z,1.90
2023-05-03T11:18:56.449Z,1.80
2023-05-03T11:20:05.796Z,1.98
2023-05-03T11:21:11.221Z,1.75
2023-05-03T11:22:14.253Z,2.00
2023-05-03T11:23:26.274Z,1.95
2023-05-03T11:24:31.735Z,1.65
2023-05-03T11:25:38.891Z,1.60
2023-05-03T11:26:47.105Z,1.75
2023-05-03T11:27:51.493Z,1.70
2023-05-03T11:28:54.504Z,1.60
2023-05-03T11:30:01.670Z,1.95
2023-05-03T11:31:06.854Z,1.60
2023-05-03T11:32:15.068Z,1.63
2023-05-03T11:33:20.911Z,1.35
2023-05-03T11:34:24.960Z,2.35
2023-05-03T11:35:33.561Z,1.92
2023-05-03T11:36:40.849Z,1.42
2023-05-03T11:37:45.260Z,1.63
2023-05-03T11:38:49.813Z,1.70
2023-05-03T11:39:55.190Z,1.92
2023-05-03T11:41:02.645Z,1.77
2023-05-03T11:42:09.788Z,1.63
2023-05-03T11:43:14.593Z,1.70
2023-05-03T11:44:20.388Z,1.60
2023-05-03T11:45:28.896Z,1.92
2023-05-03T11:46:35.941Z,1.90
2023-05-03T11:47:41.651Z,2.05
2023-05-03T11:48:47.708Z,5.80
2023-05-03T11:50:02.356Z,4.55
2023-05-03T11:51:18.725Z,2.92
2023-05-03T11:52:30.082Z,1.90
2023-05-03T11:53:34.043Z,1.92
2023-05-03T11:54:39.417Z,1.65
2023-05-03T11:55:46.656Z,1.80
2023-05-03T11:56:57.922Z,1.52
2023-05-03T11:58:04.634Z,1.95
2023-05-03T11:59:07.525Z,1.77
2023-05-03T12:00:27.347Z,1.55
2023-05-03T12:01:32.286Z,2.55
2023-05-03T12:02:34.861Z,2.00
2023-05-03T12:03:37.363Z,1.98
2023-05-03T12:04:46.497Z,1.90
2023-05-03T12:05:50.467Z,1.48
2023-05-03T12:06:56.288Z,1.60
2023-05-03T12:07:59.060Z,1.40
2023-05-03T12:09:06.205Z,2.03
2023-05-03T12:11:32.352Z,1.75
2023-05-03T12:12:42.026Z,1.70
2023-05-03T12:13:48.601Z,2.08
2023-05-03T12:15:07.829Z,1.75
2023-05-03T12:16:14.705Z,1.63
2023-05-03T12:17:38.314Z,2.00
2023-05-03T12:18:51.641Z,1.80
2023-05-03T12:20:51.232Z,1.55
2023-05-03T12:21:59.233Z,1.80
2023-05-03T12:23:11.861Z,1.65
2023-05-03T12:24:24.360Z,1.58
2023-05-03T12:25:34.012Z,2.15
2023-05-03T12:26:40.769Z,1.85
2023-05-03T12:27:52.865Z,1.73
2023-05-03T12:30:19.861Z,2.10
2023-05-03T12:31:25.395Z,1.73
2023-05-03T12:32:33.965Z,1.60
2023-05-03T12:33:39.098Z,1.52
2023-05-03T12:34:47.388Z,1.67
2023-05-03T12:35:55.016Z,1.70
2023-05-03T12:39:22.094Z,1.73
2023-05-03T12:40:34.449Z,1.50
2023-05-03T12:42:48.417Z,1.75
2023-05-03T12:43:52.537Z,1.50
2023-05-03T12:45:04.805Z,1.83
2023-05-03T12:46:32.978Z,1.58
2023-05-03T12:47:36.474Z,2.08
2023-05-03T12:48:46.073Z,1.70
2023-05-03T12:49:52.273Z,1.90
2023-05-03T12:51:06.723Z,1.50
2023-05-03T12:52:37.039Z,1.42
2023-05-03T12:54:54.981Z,1.80
2023-05-03T12:56:01.111Z,1.70
2023-05-03T12:57:09.144Z,2.53
2023-05-03T12:58:40.221Z,2.13
2023-05-03T13:01:22.612Z,1.63
2023-05-03T13:03:29.724Z,1.40
2023-05-03T13:05:55.208Z,1.77
2023-05-03T13:06:59.922Z,1.75
2023-05-03T13:08:11.364Z,1.48
2023-05-03T13:09:21.403Z,1.80
2023-05-03T13:10:30.611Z,1.65
2023-05-03T13:11:32.692Z,1.40
2023-05-03T13:12:37.537Z,2.33
2023-05-03T13:13:47.488Z,1.90
2023-05-03T13:14:54.730Z,2.15
2023-05-03T13:16:01.802Z,1.60
2023-05-03T13:17:07.232Z,1.55
2023-05-03T13:18:13.083Z,1.88
2023-05-03T13:19:18.130Z,1.60
2023-05-03T13:20:25.723Z,1.80
2023-05-03T13:21:32.739Z,2.03
2023-05-03T13:22:40.074Z,2.03
2023-05-03T13:23:46.181Z,2.45
2023-05-03T13:24:50.142Z,1.63
2023-05-03T13:25:58.690Z,1.63
2023-05-03T13:27:05.679Z,1.73
2023-05-03T13:28:12.671Z,1.83
2023-05-03T13:29:17.969Z,2.42
2023-05-03T13:30:26.611Z,1.73
2023-05-03T13:31:30.682Z,1.95
2023-05-03T13:32:36.744Z,1.67
2023-05-03T13:33:41.966Z,1.80
2023-05-03T13:34:47.188Z,1.60
2023-05-03T13:35:51.144Z,1.90
2023-05-03T13:37:00.997Z,1.90
2023-05-03T13:38:11.525Z,1.80
2023-05-03T13:39:14.090Z,1.60
2023-05-03T13:40:16.377Z,2.00
2023-05-03T13:41:20.966Z,1.65
2023-05-03T13:42:28.236Z,1.95
2023-05-03T13:43:33.352Z,1.73
2023-05-03T13:44:37.738Z,1.75
2023-05-03T13:45:42.590Z,1.73
2023-05-03T13:46:48.893Z,1.80
2023-05-03T13:48:12.000Z,1.90
2023-05-03T13:49:19.003Z,1.70
2023-05-03T13:50:26.298Z,1.90
2023-05-03T13:51:33.389Z,2.13
2023-05-03T13:52:40.035Z,2.17
2023-05-03T13:53:43.089Z,1.90
2023-05-03T13:54:48.276Z,1.55
2023-05-03T13:55:54.185Z,1.85
2023-05-03T13:57:03.848Z,1.80
2023-05-03T13:58:11.299Z,1.80
2023-05-03T13:59:18.480Z,1.50
2023-05-03T14:00:24.204Z,1.80
2023-05-03T14:01:29.707Z,1.90
2023-05-03T14:02:34.690Z,1.92
2023-05-03T14:03:39.708Z,1.80
2023-05-03T14:04:42.998Z,2.03
2023-05-03T14:05:50.510Z,2.38
2023-05-03T14:06:54.164Z,2.50
2023-05-03T14:07:59.565Z,2.10
2023-05-03T14:09:04.098Z,2.50
2023-05-03T14:10:10.525Z,2.15
2023-05-03T14:11:16.153Z,2.30
2023-05-03T14:12:25.067Z,2.53
2023-05-03T14:13:40.405Z,2.17
2023-05-03T14:14:52.626Z,1.83
2023-05-03T14:15:56.501Z,2.13
2023-05-03T14:16:59.211Z,2.00
2023-05-03T14:18:05.627Z,1.92
2023-05-03T14:19:16.803Z,2.42
2023-05-03T14:20:23.188Z,2.28
2023-05-03T14:21:27.570Z,1.85
2023-05-03T14:22:34.141Z,2.10
2023-05-03T14:23:37.465Z,1.98
2023-05-03T14:24:42.256Z,2.10
2023-05-03T14:25:46.600Z,2.40
2023-05-03T14:26:51.588Z,2.00
2023-05-03T14:27:54.377Z,2.00
2023-05-03T14:28:59.841Z,1.92
2023-05-03T14:30:03.962Z,2.10
2023-05-03T14:31:10.595Z,2.13
2023-05-03T14:33:32.167Z,1.70
2023-05-03T14:34:36.314Z,2.38
2023-05-03T14:35:40.339Z,1.77
2023-05-03T14:36:46.197Z,2.05
2023-05-03T14:37:50.292Z,1.45
2023-05-03T14:38:53.467Z,2.00
2023-05-03T14:39:58.216Z,2.47
2023-05-03T14:41:00.116Z,2.60
2023-05-03T14:42:03.428Z,2.10
2023-05-03T14:43:11.811Z,1.92
2023-05-03T14:44:15.969Z,1.88
2023-05-03T14:45:19.645Z,1.60
2023-05-03T14:46:25.244Z,2.20
2023-05-03T14:47:27.156Z,1.90
2023-05-03T14:48:31.761Z,2.03
2023-05-03T14:49:41.971Z,1.80
2023-05-03T14:50:56.225Z,1.98
2023-05-03T14:53:04.420Z,2.65
2023-05-03T14:54:07.319Z,1.90
2023-05-03T14:55:12.042Z,1.98
2023-05-03T14:56:15.100Z,1.88
2023-05-03T14:57:21.717Z,2.13
2023-05-03T14:58:24.700Z,2.03
2023-05-03T14:59:27.801Z,2.17
2023-05-03T15:00:32.523Z,2.42
2023-05-03T15:01:39.545Z,2.40
2023-05-03T15:02:44.433Z,2.40
2023-05-03T15:03:49.220Z,2.38
2023-05-03T15:04:53.902Z,2.45
2023-05-03T15:05:57.954Z,3.10
2023-05-03T15:07:07.996Z,2.72
2023-05-03T15:08:14.190Z,2.92
2023-05-03T15:09:20.146Z,2.53
2023-05-03T15:10:22.597Z,3.20
2023-05-03T15:11:29.138Z,2.60
2023-05-03T15:12:33.954Z,2.55
2023-05-03T15:13:39.377Z,2.78
2023-05-03T15:14:42.303Z,2.47
2023-05-03T15:15:49.300Z,2.88
2023-05-03T15:16:54.696Z,2.78
2023-05-03T15:18:00.576Z,2.80
2023-05-03T15:46:42.197Z,2.97
2023-05-03T15:47:44.579Z,2.33
2023-05-03T15:48:46.552Z,2.53
2023-05-03T15:49:48.121Z,2.22
2023-05-03T15:50:50.068Z,2.45
2023-05-03T15:51:52.154Z,2.50
2023-05-03T15:52:53.741Z,2.63
2023-05-03T15:53:55.543Z,2.05
2023-05-03T15:54:57.075Z,2.13
2023-05-03T16:04:16.163Z,1.92
2023-05-03T16:05:17.857Z,3.45
2023-05-03T16:06:19.652Z,2.13
2023-05-03T16:07:21.230Z,2.20
2023-05-03T16:08:22.867Z,2.30
2023-05-03T16:09:24.406Z,2.20
2023-05-03T16:10:26.840Z,2.60
2023-05-03T16:11:28.517Z,2.50
2023-05-03T16:12:30.067Z,2.60
2023-05-03T16:13:31.632Z,2.13
2023-05-03T16:14:34.546Z,2.50
2023-05-03T16:15:36.201Z,2.10
2023-05-03T16:16:40.678Z,2.05
2023-05-03T16:17:42.315Z,3.17
2023-05-03T16:18:45.242Z,2.25
2023-05-03T16:19:46.774Z,2.70
2023-05-03T16:20:51.716Z,2.67
2023-05-03T16:21:53.462Z,2.40
2023-05-03T16:22:55.029Z,2.45
2023-05-03T16:29:11.105Z,2.10
2023-05-03T16:32:06.439Z,2.50
2023-05-03T16:33:08.136Z,2.30
2023-05-03T16:34:09.780Z,2.40
2023-05-03T16:35:11.390Z,1.92
2023-05-03T16:36:13.646Z,2.65
2023-05-03T16:37:15.284Z,2.55
2023-05-03T16:39:18.680Z,2.30
2023-05-03T16:40:20.267Z,2.15
2023-05-03T16:41:21.894Z,2.35
2023-05-03T16:42:23.451Z,2.20
2023-05-03T16:43:25.133Z,2.78
2023-05-03T16:44:26.998Z,2.58
2023-05-03T16:47:35.146Z,2.38
2023-05-03T16:48:36.761Z,2.55
2023-05-03T16:53:46.217Z,2.13
2023-05-03T16:54:47.744Z,3.13
2023-05-03T16:55:49.324Z,2.03
2023-05-03T16:56:52.025Z,4.10
2023-05-03T16:57:53.558Z,2.20
2023-05-03T16:58:55.129Z,2.05
2023-05-03T16:59:56.709Z,3.15
2023-05-03T17:00:58.402Z,2.55
2023-05-03T17:02:00.083Z,2.20
2023-05-03T17:03:01.713Z,2.35
2023-05-03T17:04:04.748Z,2.30
2023-05-03T17:05:06.529Z,2.20
2023-05-03T17:06:08.460Z,2.67
2023-05-03T17:09:14.061Z,2.58
2023-05-03T17:10:16.692Z,2.70
2023-05-03T17:11:18.547Z,2.47
2023-05-03T17:12:20.354Z,2.47
2023-05-03T17:13:23.069Z,2.08
2023-05-03T17:14:24.725Z,2.53
2023-05-03T17:15:29.017Z,3.30
2023-05-03T17:16:30.732Z,2.80
2023-05-03T17:17:32.827Z,2.83
2023-05-03T17:18:35.282Z,2.25
2023-05-03T17:19:37.731Z,2.53
2023-05-03T17:20:39.378Z,2.83
2023-05-03T17:21:41.327Z,3.03
2023-05-03T17:22:42.900Z,2.88
2023-05-03T17:23:47.826Z,3.40
2023-05-03T17:24:51.775Z,2.70
2023-05-03T17:25:58.446Z,2.83
2023-05-03T17:27:01.671Z,3.47
2023-05-03T17:28:03.915Z,2.88
2023-05-03T17:29:07.784Z,2.60
2023-05-03T17:30:09.960Z,2.40
2023-05-03T17:31:12.764Z,2.55
2023-05-03T17:32:15.213Z,2.30
2023-05-03T17:33:16.954Z,2.50
2023-05-03T17:34:18.758Z,2.45
2023-05-03T17:35:20.330Z,2.53
2023-05-03T17:36:22.626Z,2.42
2023-05-03T17:37:24.973Z,3.17
2023-05-03T17:38:26.580Z,2.47
2023-05-03T17:39:28.574Z,2.45
2023-05-03T17:40:30.117Z,3.03
2023-05-03T17:41:35.011Z,2.53
2023-05-03T17:42:37.293Z,2.67
2023-05-03T17:43:40.066Z,2.63
2023-05-03T17:44:42.173Z,2.92
2023-05-03T18:00:25.594Z,1.83
2023-05-03T18:01:27.799Z,2.72
2023-05-03T18:02:31.575Z,2.15
2023-05-03T18:03:34.225Z,2.70
2023-05-03T18:04:36.228Z,2.40
2023-05-03T18:05:37.981Z,2.85
2023-05-03T18:06:40.182Z,3.53
2023-05-03T18:07:42.025Z,5.93
2023-05-03T18:08:44.289Z,2.83
2023-05-03T18:09:45.805Z,2.33
2023-05-03T18:10:47.676Z,2.03
2023-05-03T18:11:54.068Z,1.92
2023-05-03T18:12:56.293Z,2.30
2023-05-03T18:13:59.129Z,2.25
2023-05-03T18:15:01.221Z,2.35
2023-05-03T18:16:07.797Z,2.55
2023-05-03T18:17:09.488Z,1.95
2023-05-03T18:18:11.211Z,2.30
2023-05-03T18:19:13.456Z,2.30
2023-05-03T18:20:15.113Z,2.50
2023-05-03T18:21:18.657Z,1.80
2023-05-03T18:22:20.305Z,2.10
2023-05-03T18:23:21.815Z,1.80
2023-05-03T18:24:23.757Z,2.80
2023-05-03T18:25:25.301Z,2.03
2023-05-03T18:26:26.883Z,2.30
2023-05-03T18:27:31.407Z,2.47
2023-05-03T18:28:32.927Z,2.33